Time;durP1;ratioP1;P1;durP2;ratioP2;P2;SDS_P1;SDS_P2;PMS_P1;PMS_P2;Temp;Humidity;BMP_temperature;BMP_pressure;BME280_temperature;BME280_humidity;BME280_pressure;Samples;Min_cycle;Max_cycle;Signal;HPM_P1;HPM_P2
2021/08/14 00:02:21;;;;;;;;;7.00;4.00;;;;;;;;5074321;27;46065;-88
2021/08/14 00:04:46;;;;;;;;;4.33;4.00;;;;;;;;5065072;28;46061;-89
2021/08/14 00:07:11;;;;;;;;;4.00;4.00;;;;;;;;5054155;28;45657;-89
2021/08/14 00:09:36;;;;;;;;;3.33;3.33;;;;;;;;5067848;27;45454;-88
2021/08/14 00:12:05;;;;;;;;;4.00;4.00;;;;;;;;5058832;28;45391;-88
2021/08/14 00:14:30;;;;;;;;;6.50;3.00;;;;;;;;5061739;28;45548;-88
2021/08/14 00:16:56;;;;;;;;;7.00;4.00;;;;;;;;5048800;28;45730;-88
2021/08/14 00:19:21;;;;;;;;;6.00;4.00;;;;;;;;5064988;28;45538;-88
2021/08/14 00:21:46;;;;;;;;;2.00;2.00;;;;;;;;5049717;28;45540;-88
2021/08/14 00:24:12;;;;;;;;;6.00;4.00;;;;;;;;5048759;28;47201;-89
2021/08/14 00:26:37;;;;;;;;;6.67;3.00;;;;;;;;5078853;27;45430;-88
2021/08/14 00:29:02;;;;;;;;;5.00;4.00;;;;;;;;5044424;28;45940;-89
2021/08/14 00:31:28;;;;;;;;;4.25;4.00;;;;;;;;5045747;28;45343;-89
2021/08/14 00:33:53;;;;;;;;;6.00;3.25;;;;;;;;5066082;28;45316;-89
2021/08/14 00:36:18;;;;;;;;;4.00;4.00;;;;;;;;5060608;28;45303;-88
2021/08/14 00:38:44;;;;;;;;;4.25;3.00;;;;;;;;5072256;27;45220;-88
2021/08/14 00:41:09;;;;;;;;;3.25;3.00;;;;;;;;5068746;27;45483;-89
2021/08/14 00:43:34;;;;;;;;;6.67;4.00;;;;;;;;5064650;28;45593;-88
2021/08/14 00:46:00;;;;;;;;;8.25;5.00;;;;;;;;5054663;28;45874;-88
2021/08/14 00:48:25;;;;;;;;;6.50;3.25;;;;;;;;5078689;27;45439;-86
2021/08/14 00:50:52;;;;;;;;;4.50;4.00;;;;;;;;5059580;28;45366;-89
2021/08/14 00:53:17;;;;;;;;;3.00;2.50;;;;;;;;5065505;28;45521;-89
2021/08/14 00:55:43;;;;;;;;;4.00;4.00;;;;;;;;5076193;28;45509;-89
2021/08/14 00:58:08;;;;;;;;;4.50;3.50;;;;;;;;5062182;28;45577;-88
2021/08/14 01:00:34;;;;;;;;;5.50;4.25;;;;;;;;5056417;28;45527;-89
2021/08/14 01:02:59;;;;;;;;;7.00;3.25;;;;;;;;5049426;28;47650;-89
2021/08/14 01:05:24;;;;;;;;;3.67;3.33;;;;;;;;5070028;28;45330;-90
2021/08/14 01:07:50;;;;;;;;;3.33;3.33;;;;;;;;5050136;28;45313;-89
2021/08/14 01:10:16;;;;;;;;;4.00;4.00;;;;;;;;5066719;27;45408;-87
2021/08/14 01:12:41;;;;;;;;;6.00;5.75;;;;;;;;5061411;28;45942;-89
2021/08/14 01:15:06;;;;;;;;;5.00;4.00;;;;;;;;5070374;28;45253;-89
2021/08/14 01:17:33;;;;;;;;;4.00;4.00;;;;;;;;5048455;28;45538;-89
2021/08/14 01:19:58;;;;;;;;;3.50;3.00;;;;;;;;5053489;28;45667;-89
2021/08/14 01:22:23;;;;;;;;;5.33;3.00;;;;;;;;5071501;28;46369;-89
2021/08/14 01:24:48;;;;;;;;;3.67;3.00;;;;;;;;5073037;28;45364;-89
2021/08/14 01:27:14;;;;;;;;;6.33;2.67;;;;;;;;5071973;28;45324;-89
2021/08/14 01:29:40;;;;;;;;;5.75;3.25;;;;;;;;5052670;28;45664;-88
2021/08/14 01:32:06;;;;;;;;;5.75;5.00;;;;;;;;5064830;28;45782;-89
2021/08/14 01:34:31;;;;;;;;;4.25;3.00;;;;;;;;5054321;28;45672;-89
2021/08/14 01:36:56;;;;;;;;;5.00;4.00;;;;;;;;5069788;28;45407;-88
2021/08/14 01:39:21;;;;;;;;;5.00;3.00;;;;;;;;5072588;28;45597;-87
2021/08/14 01:41:57;;;;;;;;;10.25;4.25;;;;;;;;5075785;27;46488;-88
2021/08/14 01:44:23;;;;;;;;;6.00;5.00;;;;;;;;5061388;28;45503;-88
2021/08/14 01:46:48;;;;;;;;;6.00;4.00;;;;;;;;5061969;27;45454;-89
2021/08/14 01:49:14;;;;;;;;;5.67;4.00;;;;;;;;5063962;28;45730;-89
2021/08/14 01:51:39;;;;;;;;;5.67;3.67;;;;;;;;5063349;28;46464;-89
2021/08/14 01:54:05;;;;;;;;;3.00;3.00;;;;;;;;5070723;28;45867;-89
2021/08/14 01:56:30;;;;;;;;;4.75;3.00;;;;;;;;5067796;28;45411;-89
2021/08/14 01:58:56;;;;;;;;;5.00;4.25;;;;;;;;5067301;28;45425;-89
2021/08/14 02:01:21;;;;;;;;;7.50;4.00;;;;;;;;5061184;28;46236;-89
2021/08/14 02:03:47;;;;;;;;;5.50;4.25;;;;;;;;5066662;28;45394;-89
2021/08/14 02:06:12;;;;;;;;;6.75;4.00;;;;;;;;5065041;28;45321;-88
2021/08/14 02:08:38;;;;;;;;;4.25;2.75;;;;;;;;5070180;28;45363;-87
2021/08/14 02:11:09;;;;;;;;;3.00;3.00;;;;;;;;5071774;28;45311;-88
2021/08/14 02:13:34;;;;;;;;;5.00;3.50;;;;;;;;5068489;27;45764;-88
2021/08/14 02:15:59;;;;;;;;;3.67;2.33;;;;;;;;5069392;28;45484;-87
2021/08/14 02:18:24;;;;;;;;;4.00;3.00;;;;;;;;5049541;28;45572;-89
2021/08/14 02:20:49;;;;;;;;;5.67;4.00;;;;;;;;5069812;28;46002;-89
2021/08/14 02:23:15;;;;;;;;;8.33;4.67;;;;;;;;5071226;28;45727;-89
2021/08/14 02:25:40;;;;;;;;;5.00;5.00;;;;;;;;5074613;28;45600;-89
2021/08/14 02:28:05;;;;;;;;;7.00;5.67;;;;;;;;5074986;28;45444;-89
2021/08/14 02:30:30;;;;;;;;;6.67;4.00;;;;;;;;5067911;28;45527;-88
2021/08/14 02:32:55;;;;;;;;;6.00;4.00;;;;;;;;5047616;28;45617;-89
2021/08/14 02:35:21;;;;;;;;;7.00;4.00;;;;;;;;5074987;28;45446;-88
2021/08/14 02:37:46;;;;;;;;;5.67;4.00;;;;;;;;5049925;28;46855;-89
2021/08/14 02:40:11;;;;;;;;;7.00;4.67;;;;;;;;5070054;28;46466;-89
2021/08/14 02:42:43;;;;;;;;;7.00;4.33;;;;;;;;5065318;28;45680;-88
2021/08/14 02:45:09;;;;;;;;;8.25;4.00;;;;;;;;5070094;28;45362;-89
2021/08/14 02:47:37;;;;;;;;;5.00;3.00;;;;;;;;5064462;27;45320;-89
2021/08/14 02:50:03;;;;;;;;;6.00;3.00;;;;;;;;5062309;27;46077;-90
2021/08/14 02:52:28;;;;;;;;;3.00;3.00;;;;;;;;5050336;28;45587;-89
2021/08/14 02:54:54;;;;;;;;;6.00;4.67;;;;;;;;5075048;27;45517;-89
2021/08/14 02:57:19;;;;;;;;;6.00;3.33;;;;;;;;5063413;28;45808;-89
2021/08/14 02:59:44;;;;;;;;;6.33;3.33;;;;;;;;5065487;27;45589;-89
2021/08/14 03:02:09;;;;;;;;;9.67;5.00;;;;;;;;5053937;28;45752;-89
2021/08/14 03:04:34;;;;;;;;;5.67;4.00;;;;;;;;5070300;28;45419;-89
2021/08/14 03:07:00;;;;;;;;;5.33;4.00;;;;;;;;5070694;28;45438;-89
2021/08/14 03:09:25;;;;;;;;;4.67;3.33;;;;;;;;5045638;28;48425;-88
2021/08/14 03:11:50;;;;;;;;;7.00;3.00;;;;;;;;5071080;28;45280;-89
2021/08/14 03:14:15;;;;;;;;;6.00;3.00;;;;;;;;5067071;28;45569;-89
2021/08/14 03:16:40;;;;;;;;;4.33;4.33;;;;;;;;5044604;28;45402;-88
2021/08/14 03:19:06;;;;;;;;;5.33;4.00;;;;;;;;5052184;28;46277;-89
2021/08/14 03:21:31;;;;;;;;;5.00;3.67;;;;;;;;5066723;28;45802;-89
2021/08/14 03:23:56;;;;;;;;;6.33;4.33;;;;;;;;5048731;28;45581;-90
2021/08/14 03:26:22;;;;;;;;;5.67;3.67;;;;;;;;5058491;28;45449;-88
2021/08/14 03:28:48;;;;;;;;;3.75;3.75;;;;;;;;5065112;27;45484;-89
2021/08/14 03:31:13;;;;;;;;;8.00;3.00;;;;;;;;5068765;28;45392;-89
2021/08/14 03:33:38;;;;;;;;;4.75;3.25;;;;;;;;5063163;28;45430;-89
2021/08/14 03:36:04;;;;;;;;;9.33;5.00;;;;;;;;5071898;28;45425;-89
2021/08/14 03:38:29;;;;;;;;;7.75;3.50;;;;;;;;5074256;28;45660;-89
2021/08/14 03:40:54;;;;;;;;;4.50;4.00;;;;;;;;5059402;28;45608;-88
2021/08/14 03:43:21;;;;;;;;;6.67;4.00;;;;;;;;5063209;28;45875;-87
2021/08/14 03:45:46;;;;;;;;;7.50;4.50;;;;;;;;5057575;28;46295;-89
2021/08/14 03:48:11;;;;;;;;;4.50;3.75;;;;;;;;5066430;28;45518;-89
2021/08/14 03:50:36;;;;;;;;;4.67;3.00;;;;;;;;5052139;28;45671;-89
2021/08/14 03:53:01;;;;;;;;;5.00;5.00;;;;;;;;5049471;28;45562;-89
2021/08/14 03:55:27;;;;;;;;;7.00;3.67;;;;;;;;5071043;28;45420;-89
2021/08/14 03:57:52;;;;;;;;;7.00;4.00;;;;;;;;5055488;28;48364;-89
2021/08/14 04:00:17;;;;;;;;;7.00;4.00;;;;;;;;5073218;28;45474;-89
2021/08/14 04:02:42;;;;;;;;;5.00;3.00;;;;;;;;5049466;28;45682;-89
2021/08/14 04:05:08;;;;;;;;;9.00;3.33;;;;;;;;5061157;28;45322;-89
2021/08/14 04:07:33;;;;;;;;;5.50;4.75;;;;;;;;5062138;28;46058;-89
2021/08/14 04:09:58;;;;;;;;;5.00;4.33;;;;;;;;5055749;28;45365;-88
2021/08/14 04:12:23;;;;;;;;;5.67;4.00;;;;;;;;5065517;28;45682;-88
2021/08/14 04:14:48;;;;;;;;;5.33;4.33;;;;;;;;5064793;28;45498;-89
2021/08/14 04:17:14;;;;;;;;;7.33;4.00;;;;;;;;5061298;28;46250;-89
2021/08/14 04:19:39;;;;;;;;;5.25;4.25;;;;;;;;5057640;28;45425;-89
2021/08/14 04:22:04;;;;;;;;;5.00;4.00;;;;;;;;5070611;27;45374;-89
2021/08/14 04:24:29;;;;;;;;;5.00;5.00;;;;;;;;5071428;28;45277;-89
2021/08/14 04:26:55;;;;;;;;;4.67;4.33;;;;;;;;5070063;28;46098;-89
2021/08/14 04:29:20;;;;;;;;;3.50;3.50;;;;;;;;5061053;28;45414;-89
2021/08/14 04:31:45;;;;;;;;;4.33;3.00;;;;;;;;5042489;28;45312;-89
2021/08/14 04:34:10;;;;;;;;;6.67;4.00;;;;;;;;5068208;28;45654;-89
2021/08/14 04:36:35;;;;;;;;;5.33;4.00;;;;;;;;5051594;28;47038;-90
2021/08/14 04:39:01;;;;;;;;;7.00;4.00;;;;;;;;5069820;28;45529;-89
2021/08/14 04:41:26;;;;;;;;;6.00;4.00;;;;;;;;5063018;27;45369;-88
2021/08/14 04:43:51;;;;;;;;;4.33;4.00;;;;;;;;5060461;28;45442;-89
2021/08/14 04:46:16;;;;;;;;;4.00;4.00;;;;;;;;5067584;27;47303;-88
2021/08/14 04:48:42;;;;;;;;;3.33;3.33;;;;;;;;5069387;28;45461;-88
2021/08/14 04:51:07;;;;;;;;;4.00;3.67;;;;;;;;5049159;28;45462;-87
2021/08/14 04:53:32;;;;;;;;;6.33;5.00;;;;;;;;5062869;28;45474;-89
2021/08/14 04:55:57;;;;;;;;;6.33;4.00;;;;;;;;5055902;28;47196;-89
2021/08/14 04:58:22;;;;;;;;;6.33;4.00;;;;;;;;5051039;28;45426;-89
2021/08/14 05:00:48;;;;;;;;;5.75;4.50;;;;;;;;5070001;28;45422;-87
2021/08/14 05:03:14;;;;;;;;;4.00;4.00;;;;;;;;5039641;28;45459;-88
2021/08/14 05:05:42;;;;;;;;;5.50;4.50;;;;;;;;5058732;28;45464;-88
2021/08/14 05:08:07;;;;;;;;;4.00;4.00;;;;;;;;5057911;28;45608;-88
2021/08/14 05:10:32;;;;;;;;;5.67;2.67;;;;;;;;5039060;28;45563;-89
2021/08/14 05:12:57;;;;;;;;;5.00;5.00;;;;;;;;5056863;28;45581;-88
2021/08/14 05:15:22;;;;;;;;;6.33;3.67;;;;;;;;5065195;28;46578;-88
2021/08/14 05:17:48;;;;;;;;;7.33;3.00;;;;;;;;5059707;28;45375;-88
2021/08/14 05:20:13;;;;;;;;;2.33;2.33;;;;;;;;5061976;28;45482;-89
2021/08/14 05:22:38;;;;;;;;;4.00;4.00;;;;;;;;5046194;28;45397;-88
2021/08/14 05:25:04;;;;;;;;;8.00;3.67;;;;;;;;5066420;28;46132;-89
2021/08/14 05:27:29;;;;;;;;;3.00;3.00;;;;;;;;5062081;27;45844;-89
2021/08/14 05:29:54;;;;;;;;;4.33;3.00;;;;;;;;5053760;27;45392;-88
2021/08/14 05:32:19;;;;;;;;;6.00;3.33;;;;;;;;5065459;27;45439;-87
2021/08/14 05:34:44;;;;;;;;;6.75;3.50;;;;;;;;5069383;28;45537;-88
2021/08/14 05:37:10;;;;;;;;;4.00;4.00;;;;;;;;5053485;28;45357;-89
2021/08/14 05:39:35;;;;;;;;;3.67;3.00;;;;;;;;5062406;28;45471;-89
2021/08/14 05:42:01;;;;;;;;;6.67;3.00;;;;;;;;5053852;28;45594;-88
2021/08/14 05:44:26;;;;;;;;;4.75;3.75;;;;;;;;5067372;27;45500;-89
2021/08/14 05:46:52;;;;;;;;;3.33;3.00;;;;;;;;5053729;28;51267;-89
2021/08/14 05:49:17;;;;;;;;;3.67;3.00;;;;;;;;5050751;28;45554;-89
2021/08/14 05:51:42;;;;;;;;;7.00;5.00;;;;;;;;5071895;28;45466;-89
2021/08/14 05:54:07;;;;;;;;;4.00;4.00;;;;;;;;5053403;28;47231;-89
2021/08/14 05:56:33;;;;;;;;;5.50;4.75;;;;;;;;5069931;28;45355;-89
2021/08/14 05:58:59;;;;;;;;;4.00;4.00;;;;;;;;5066782;28;45527;-89
2021/08/14 06:01:24;;;;;;;;;9.50;3.75;;;;;;;;5067333;27;47290;-91
2021/08/14 06:03:49;;;;;;;;;2.00;2.00;;;;;;;;5056665;28;46947;-89
2021/08/14 06:06:14;;;;;;;;;7.00;3.00;;;;;;;;5075611;28;45775;-91
2021/08/14 06:08:40;;;;;;;;;6.25;4.50;;;;;;;;5071437;28;45480;-90
2021/08/14 06:11:05;;;;;;;;;3.67;3.00;;;;;;;;5063907;28;45446;-90
2021/08/14 06:13:30;;;;;;;;;4.33;4.33;;;;;;;;5073513;28;45621;-90
2021/08/14 06:15:55;;;;;;;;;8.33;3.67;;;;;;;;5050455;28;46060;-91
2021/08/14 06:18:20;;;;;;;;;7.00;4.00;;;;;;;;5068292;28;45581;-90
2021/08/14 06:20:45;;;;;;;;;9.33;4.00;;;;;;;;5067581;28;45502;-93
2021/08/14 06:23:11;;;;;;;;;7.67;4.33;;;;;;;;5042935;28;47521;-89
2021/08/14 06:25:36;;;;;;;;;7.33;5.33;;;;;;;;5065148;28;45458;-87
2021/08/14 06:28:01;;;;;;;;;7.67;5.00;;;;;;;;5062802;28;45393;-86
2021/08/14 06:30:26;;;;;;;;;7.00;4.00;;;;;;;;5054498;28;45456;-87
2021/08/14 06:32:52;;;;;;;;;3.00;3.00;;;;;;;;5045213;28;46992;-86
2021/08/14 06:35:17;;;;;;;;;3.67;3.00;;;;;;;;5071144;27;45419;-87
2021/08/14 06:37:43;;;;;;;;;5.00;5.00;;;;;;;;5066705;28;45411;-85
2021/08/14 06:40:09;;;;;;;;;5.75;4.25;;;;;;;;5060024;28;45729;-84
2021/08/14 06:42:34;;;;;;;;;4.75;4.25;;;;;;;;5068407;28;45434;-84
2021/08/14 06:44:59;;;;;;;;;5.00;4.67;;;;;;;;5055569;28;45452;-85
2021/08/14 06:47:24;;;;;;;;;9.00;5.67;;;;;;;;5045606;28;45434;-85
2021/08/14 06:49:49;;;;;;;;;6.00;4.33;;;;;;;;5061545;28;45656;-86
2021/08/14 06:52:15;;;;;;;;;6.50;4.50;;;;;;;;5049191;28;47248;-82
2021/08/14 06:54:40;;;;;;;;;5.33;5.00;;;;;;;;5061830;28;45405;-81
2021/08/14 06:57:05;;;;;;;;;7.33;4.67;;;;;;;;5070699;28;45518;-75
2021/08/14 06:59:30;;;;;;;;;10.25;5.00;;;;;;;;5066901;28;45464;-75
2021/08/14 07:01:56;;;;;;;;;5.00;5.00;;;;;;;;5046190;28;47389;-75
2021/08/14 07:04:21;;;;;;;;;7.33;3.67;;;;;;;;5050469;28;45442;-76
2021/08/14 07:06:46;;;;;;;;;8.00;4.50;;;;;;;;5068313;28;45558;-74
2021/08/14 07:09:11;;;;;;;;;4.00;3.67;;;;;;;;5061230;27;45384;-75
2021/08/14 07:11:36;;;;;;;;;7.00;5.00;;;;;;;;5069372;27;46473;-75
2021/08/14 07:14:02;;;;;;;;;6.33;4.00;;;;;;;;5049011;28;45458;-75
2021/08/14 07:16:27;;;;;;;;;6.33;4.67;;;;;;;;5060592;28;45485;-75
2021/08/14 07:18:52;;;;;;;;;5.00;4.33;;;;;;;;5051002;28;45856;-76
2021/08/14 07:21:17;;;;;;;;;8.00;5.00;;;;;;;;5049574;28;46932;-77
2021/08/14 07:23:42;;;;;;;;;8.33;4.67;;;;;;;;5062454;27;46671;-75
2021/08/14 07:26:08;;;;;;;;;5.00;4.00;;;;;;;;5067930;28;45509;-76
2021/08/14 07:28:33;;;;;;;;;6.00;3.00;;;;;;;;5069383;28;45383;-75
2021/08/14 07:30:58;;;;;;;;;9.00;5.00;;;;;;;;5062567;28;45516;-76
2021/08/14 07:33:23;;;;;;;;;5.50;4.75;;;;;;;;5060307;27;46022;-76
2021/08/14 07:35:49;;;;;;;;;7.00;6.00;;;;;;;;5070282;27;45457;-76
2021/08/14 07:38:15;;;;;;;;;8.25;4.50;;;;;;;;5063758;27;45605;-75
2021/08/14 07:40:40;;;;;;;;;9.25;5.00;;;;;;;;5066977;28;45408;-75
2021/08/14 07:43:07;;;;;;;;;4.00;4.00;;;;;;;;5062143;28;45478;-76
2021/08/14 07:45:32;;;;;;;;;4.75;4.00;;;;;;;;5070593;28;45314;-76
2021/08/14 07:47:58;;;;;;;;;5.75;4.00;;;;;;;;5062034;28;45538;-77
2021/08/14 07:50:24;;;;;;;;;8.00;4.00;;;;;;;;5064961;28;46112;-76
2021/08/14 07:52:49;;;;;;;;;5.00;5.00;;;;;;;;5048110;27;46090;-75
2021/08/14 07:55:15;;;;;;;;;5.25;3.00;;;;;;;;5068093;27;45536;-75
2021/08/14 07:57:41;;;;;;;;;3.50;3.50;;;;;;;;5061693;28;45610;-75
2021/08/14 08:00:07;;;;;;;;;5.75;2.00;;;;;;;;5067649;28;46424;-76
2021/08/14 08:02:32;;;;;;;;;4.50;4.25;;;;;;;;5069355;28;45635;-76
2021/08/14 08:04:57;;;;;;;;;4.67;4.67;;;;;;;;5065030;28;45755;-79
2021/08/14 08:07:23;;;;;;;;;6.33;2.00;;;;;;;;5052096;28;45572;-75
2021/08/14 08:09:48;;;;;;;;;3.67;3.00;;;;;;;;5054672;28;46161;-76
2021/08/14 08:12:13;;;;;;;;;3.33;3.33;;;;;;;;5068494;28;46155;-76
2021/08/14 08:14:38;;;;;;;;;5.00;2.67;;;;;;;;5063863;28;46163;-75
2021/08/14 08:17:03;;;;;;;;;5.33;2.67;;;;;;;;5063694;28;45367;-76
2021/08/14 08:19:29;;;;;;;;;5.00;3.00;;;;;;;;5064907;28;45437;-75
2021/08/14 08:21:55;;;;;;;;;6.33;3.00;;;;;;;;5051061;28;45537;-76
2021/08/14 08:24:20;;;;;;;;;4.00;3.25;;;;;;;;5048742;28;45745;-75
2021/08/14 08:26:45;;;;;;;;;4.00;4.00;;;;;;;;5071046;28;45557;-76
2021/08/14 08:29:10;;;;;;;;;5.33;3.00;;;;;;;;5061390;28;46355;-76
2021/08/14 08:31:35;;;;;;;;;4.00;3.00;;;;;;;;5057057;27;45506;-76
2021/08/14 08:34:01;;;;;;;;;4.00;3.00;;;;;;;;5065201;27;45475;-76
2021/08/14 08:36:26;;;;;;;;;7.00;4.25;;;;;;;;5054793;27;45679;-74
2021/08/14 08:38:51;;;;;;;;;4.25;3.50;;;;;;;;5041269;27;48304;-76
2021/08/14 08:41:17;;;;;;;;;7.00;3.33;;;;;;;;5065078;27;46945;-74
2021/08/14 08:43:42;;;;;;;;;6.50;3.50;;;;;;;;5068803;28;45504;-74
2021/08/14 08:46:11;;;;;;;;;6.25;4.50;;;;;;;;5069048;28;45754;-75
2021/08/14 08:48:39;;;;;;;;;6.25;4.00;;;;;;;;5053580;28;46781;-74
2021/08/14 08:51:05;;;;;;;;;3.75;3.75;;;;;;;;5060501;27;45656;-74
2021/08/14 08:53:30;;;;;;;;;6.00;4.00;;;;;;;;5062895;27;45549;-75
2021/08/14 08:55:55;;;;;;;;;7.00;3.00;;;;;;;;5061926;27;45453;-74
2021/08/14 08:58:21;;;;;;;;;9.25;4.00;;;;;;;;5059287;27;46247;-74
2021/08/14 09:00:46;;;;;;;;;6.25;5.00;;;;;;;;5048652;27;46633;-74
2021/08/14 09:03:13;;;;;;;;;6.00;5.00;;;;;;;;5050597;27;45485;-74
2021/08/14 09:05:45;;;;;;;;;7.00;5.00;;;;;;;;5049849;28;45521;-74
2021/08/14 09:08:11;;;;;;;;;6.75;5.00;;;;;;;;5066835;28;46191;-74
2021/08/14 09:10:36;;;;;;;;;9.00;4.00;;;;;;;;5067161;27;45549;-75
2021/08/14 09:13:11;;;;;;;;;4.50;4.00;;;;;;;;5059082;28;45524;-74
2021/08/14 09:15:36;;;;;;;;;4.00;4.00;;;;;;;;5058841;28;45400;-76
2021/08/14 09:18:03;;;;;;;;;7.25;3.50;;;;;;;;5068357;28;45367;-74
2021/08/14 09:20:28;;;;;;;;;8.50;4.50;;;;;;;;5067913;28;45466;-74
2021/08/14 09:23:10;;;;;;;;;5.25;4.75;;;;;;;;5063519;28;45549;-74
2021/08/14 09:25:42;;;;;;;;;3.25;3.00;;;;;;;;5061139;28;45460;-75
2021/08/14 09:28:09;;;;;;;;;5.50;3.75;;;;;;;;5061117;28;45587;-74
2021/08/14 09:30:45;;;;;;;;;10.00;6.00;;;;;;;;5064032;28;45831;-75
2021/08/14 09:33:11;;;;;;;;;4.00;4.00;;;;;;;;5057457;27;45754;-75
2021/08/14 09:35:36;;;;;;;;;5.25;3.75;;;;;;;;5057909;28;45379;-75
2021/08/14 09:38:05;;;;;;;;;4.25;3.00;;;;;;;;5059398;28;46042;-73
2021/08/14 09:40:57;;;;;;;;;5.50;4.00;;;;;;;;5040309;28;45704;-74
2021/08/14 09:43:33;;;;;;;;;4.25;4.25;;;;;;;;5054649;28;45348;-75
2021/08/14 09:45:58;;;;;;;;;3.00;3.00;;;;;;;;5059482;27;45379;-74
2021/08/14 09:48:24;;;;;;;;;3.00;3.00;;;;;;;;5057652;28;45588;-74
2021/08/14 09:50:49;;;;;;;;;4.00;3.00;;;;;;;;5067180;28;45333;-82
2021/08/14 09:53:17;;;;;;;;;4.67;4.00;;;;;;;;5058676;28;45410;-74
2021/08/14 09:55:45;;;;;;;;;6.00;5.00;;;;;;;;5066202;28;45633;-74
2021/08/14 09:58:13;;;;;;;;;5.25;3.50;;;;;;;;5045570;28;47471;-74
2021/08/14 10:00:39;;;;;;;;;4.50;4.25;;;;;;;;5067548;28;45465;-74
2021/08/14 10:03:05;;;;;;;;;5.00;4.00;;;;;;;;5058892;27;45549;-84
2021/08/14 10:05:32;;;;;;;;;8.00;3.75;;;;;;;;5047191;28;45562;-83
2021/08/14 10:07:58;;;;;;;;;6.75;4.75;;;;;;;;5051147;28;48414;-83
2021/08/14 10:10:23;;;;;;;;;5.00;5.00;;;;;;;;5054256;27;45541;-84
2021/08/14 10:12:49;;;;;;;;;7.25;4.00;;;;;;;;5049730;27;45497;-84
2021/08/14 10:15:15;;;;;;;;;7.50;3.75;;;;;;;;5043932;28;45483;-83
2021/08/14 10:17:40;;;;;;;;;4.00;4.00;;;;;;;;5063347;27;46366;-83
2021/08/14 10:20:06;;;;;;;;;6.25;4.25;;;;;;;;5045671;28;45751;-83
2021/08/14 10:22:32;;;;;;;;;4.00;4.00;;;;;;;;5070521;28;45532;-83
2021/08/14 10:24:57;;;;;;;;;6.25;6.25;;;;;;;;5070304;28;45614;-83
2021/08/14 10:27:23;;;;;;;;;4.25;4.00;;;;;;;;5065815;28;45489;-83
2021/08/14 10:29:48;;;;;;;;;3.50;3.25;;;;;;;;5063498;27;45429;-82
2021/08/14 10:32:32;;;;;;;;;6.75;4.75;;;;;;;;5046819;28;45431;-89
2021/08/14 10:35:20;;;;;;;;;6.00;5.00;;;;;;;;5065137;27;45567;-88
2021/08/14 10:37:48;;;;;;;;;4.25;3.00;;;;;;;;5045278;28;47512;-89
2021/08/14 10:40:14;;;;;;;;;7.00;4.00;;;;;;;;5071426;28;45463;-89
2021/08/14 10:42:56;;;;;;;;;5.75;4.50;;;;;;;;5066242;28;45462;-89
2021/08/14 10:45:22;;;;;;;;;3.50;3.50;;;;;;;;5050743;28;45397;-88
2021/08/14 10:47:51;;;;;;;;;5.25;4.00;;;;;;;;5061120;27;45489;-84
2021/08/14 10:50:35;;;;;;;;;5.00;4.50;;;;;;;;5045497;27;45467;-86
2021/08/14 10:53:20;;;;;;;;;4.75;4.75;;;;;;;;5064551;28;45741;-86
2021/08/14 10:55:49;;;;;;;;;6.00;4.00;;;;;;;;5066860;28;45449;-84
2021/08/14 10:58:18;;;;;;;;;7.00;5.25;;;;;;;;5070174;28;46586;-86
2021/08/14 11:00:43;;;;;;;;;5.50;4.25;;;;;;;;5068634;27;45522;-85
2021/08/14 11:03:09;;;;;;;;;6.75;3.75;;;;;;;;5062172;27;45589;-86
2021/08/14 11:05:35;;;;;;;;;6.25;5.00;;;;;;;;5050060;28;45756;-85
2021/08/14 11:08:01;;;;;;;;;12.25;12.25;;;;;;;;5065406;28;46090;-86
2021/08/14 11:10:45;;;;;;;;;11.00;7.00;;;;;;;;5059278;27;46516;-86
2021/08/14 11:13:30;;;;;;;;;24.75;20.25;;;;;;;;5065733;27;45603;-85
2021/08/14 11:15:55;;;;;;;;;20.00;15.50;;;;;;;;5054948;27;45550;-85
2021/08/14 11:18:40;;;;;;;;;17.50;12.00;;;;;;;;5063861;27;45914;-85
2021/08/14 11:21:06;;;;;;;;;13.00;9.00;;;;;;;;5054391;28;45553;-86
2021/08/14 11:23:32;;;;;;;;;10.50;7.75;;;;;;;;5063777;28;45955;-84
2021/08/14 11:25:57;;;;;;;;;6.00;6.00;;;;;;;;5058394;27;45446;-84
2021/08/14 11:28:25;;;;;;;;;5.75;5.75;;;;;;;;5066065;28;45659;-85
2021/08/14 11:31:01;;;;;;;;;3.50;3.50;;;;;;;;5054517;28;45813;-85
2021/08/14 11:33:26;;;;;;;;;5.25;3.25;;;;;;;;5062578;27;45557;-82
2021/08/14 11:36:01;;;;;;;;;6.50;5.00;;;;;;;;5039136;28;46308;-85
2021/08/14 11:38:31;;;;;;;;;7.25;5.50;;;;;;;;5057137;28;45641;-87
2021/08/14 11:40:56;;;;;;;;;3.75;3.00;;;;;;;;5039727;28;45501;-86
2021/08/14 11:43:31;;;;;;;;;6.75;4.00;;;;;;;;5067245;27;45526;-83
2021/08/14 11:46:02;;;;;;;;;6.50;4.25;;;;;;;;5062140;27;45586;-84
2021/08/14 11:48:36;;;;;;;;;6.00;4.00;;;;;;;;5064962;28;46316;-84
2021/08/14 11:51:01;;;;;;;;;6.00;5.00;;;;;;;;5070298;27;45646;-80
2021/08/14 11:53:27;;;;;;;;;5.67;4.33;;;;;;;;5059025;27;45503;-83
2021/08/14 11:56:05;;;;;;;;;5.50;5.50;;;;;;;;5059612;28;45628;-84
2021/08/14 11:58:30;;;;;;;;;4.50;4.25;;;;;;;;5057844;28;46171;-86
2021/08/14 12:00:56;;;;;;;;;4.00;4.00;;;;;;;;5053719;28;45602;-84
2021/08/14 12:03:21;;;;;;;;;7.00;5.75;;;;;;;;5066338;27;45464;-86
2021/08/14 12:05:47;;;;;;;;;5.67;3.67;;;;;;;;5057174;27;45419;-84
2021/08/14 12:08:32;;;;;;;;;5.00;3.75;;;;;;;;5068434;27;46055;-84
2021/08/14 12:10:58;;;;;;;;;6.75;4.00;;;;;;;;5070154;27;45520;-82
2021/08/14 12:13:24;;;;;;;;;4.50;4.25;;;;;;;;5063259;28;45709;-85
2021/08/14 12:15:49;;;;;;;;;5.00;5.00;;;;;;;;5065665;28;45457;-82
2021/08/14 12:18:31;;;;;;;;;4.25;4.25;;;;;;;;5075520;27;45489;-83
2021/08/14 12:21:00;;;;;;;;;5.50;5.50;;;;;;;;5059389;27;45658;-83
2021/08/14 12:23:29;;;;;;;;;7.00;5.50;;;;;;;;5066493;28;45587;-82
2021/08/14 12:25:54;;;;;;;;;6.00;5.25;;;;;;;;5064621;28;45490;-84
2021/08/14 12:28:26;;;;;;;;;10.00;6.33;;;;;;;;5064954;28;45790;-86
2021/08/14 12:30:51;;;;;;;;;10.75;7.00;;;;;;;;5064925;27;46581;-83
2021/08/14 12:33:24;;;;;;;;;6.50;6.00;;;;;;;;5048407;28;45553;-84
2021/08/14 12:36:00;;;;;;;;;7.75;6.25;;;;;;;;5075410;27;46294;-85
2021/08/14 12:38:25;;;;;;;;;9.25;6.00;;;;;;;;5047641;28;48104;-78
2021/08/14 12:40:51;;;;;;;;;9.75;6.75;;;;;;;;5064051;28;45626;-82
2021/08/14 12:43:17;;;;;;;;;9.75;7.50;;;;;;;;5059701;28;45723;-86
2021/08/14 12:45:42;;;;;;;;;7.75;5.25;;;;;;;;5062334;28;45603;-84
2021/08/14 12:48:09;;;;;;;;;6.00;5.25;;;;;;;;5057206;28;45560;-84
2021/08/14 12:50:36;;;;;;;;;7.50;6.75;;;;;;;;5069266;28;45709;-81
2021/08/14 12:53:10;;;;;;;;;5.00;5.00;;;;;;;;5067302;28;45450;-84
2021/08/14 12:55:39;;;;;;;;;5.75;5.75;;;;;;;;5060034;27;45801;-84
2021/08/14 12:58:08;;;;;;;;;8.50;6.00;;;;;;;;5070941;27;45395;-84
2021/08/14 13:00:35;;;;;;;;;6.25;6.25;;;;;;;;5063673;27;45600;-81
2021/08/14 13:03:00;;;;;;;;;5.50;5.50;;;;;;;;5060457;28;45538;-84
2021/08/14 13:05:26;;;;;;;;;6.50;5.00;;;;;;;;5064101;28;45900;-82
2021/08/14 13:07:51;;;;;;;;;7.50;5.75;;;;;;;;5049309;28;46105;-83
2021/08/14 13:10:17;;;;;;;;;7.33;6.00;;;;;;;;5067965;27;45621;-82
2021/08/14 13:12:46;;;;;;;;;9.25;6.50;;;;;;;;5063539;27;45488;-84
2021/08/14 13:15:11;;;;;;;;;5.75;5.75;;;;;;;;5047841;28;45470;-83
2021/08/14 13:17:36;;;;;;;;;6.33;6.00;;;;;;;;5066481;28;45497;-83
2021/08/14 13:20:01;;;;;;;;;4.33;2.67;;;;;;;;5068341;28;45257;-83
2021/08/14 13:22:27;;;;;;;;;7.00;6.00;;;;;;;;5053671;27;45505;-84
2021/08/14 13:24:52;;;;;;;;;4.00;4.00;;;;;;;;5069445;27;45399;-85
2021/08/14 13:27:17;;;;;;;;;8.00;7.67;;;;;;;;5064923;27;45511;-83
2021/08/14 13:29:43;;;;;;;;;9.67;8.67;;;;;;;;5072125;28;45420;-84
2021/08/14 13:32:08;;;;;;;;;6.25;6.25;;;;;;;;5062259;28;45333;-85
2021/08/14 13:34:33;;;;;;;;;7.67;7.33;;;;;;;;5059962;28;45353;-84
2021/08/14 13:36:59;;;;;;;;;10.67;7.67;;;;;;;;5065355;27;45561;-84
2021/08/14 13:39:24;;;;;;;;;10.00;8.25;;;;;;;;5061964;27;45562;-81
2021/08/14 13:41:49;;;;;;;;;10.33;7.00;;;;;;;;5051023;28;45695;-83
2021/08/14 13:44:14;;;;;;;;;7.00;7.00;;;;;;;;5068920;27;45578;-83
2021/08/14 13:46:39;;;;;;;;;12.67;10.00;;;;;;;;5044715;28;47346;-85
2021/08/14 13:49:05;;;;;;;;;10.25;7.25;;;;;;;;5044911;28;46648;-82
2021/08/14 13:51:30;;;;;;;;;7.00;6.00;;;;;;;;5067115;28;45344;-85
2021/08/14 13:53:55;;;;;;;;;8.00;7.00;;;;;;;;5052691;28;45653;-82
2021/08/14 13:56:20;;;;;;;;;6.67;6.67;;;;;;;;5058623;28;47785;-82
2021/08/14 13:58:46;;;;;;;;;8.00;6.67;;;;;;;;5067328;28;45326;-80
2021/08/14 14:01:11;;;;;;;;;8.00;6.67;;;;;;;;5057918;28;50178;-81
2021/08/14 14:03:36;;;;;;;;;8.00;6.00;;;;;;;;5058672;27;45455;-83
2021/08/14 14:06:01;;;;;;;;;7.00;7.00;;;;;;;;5053026;28;48643;-79
2021/08/14 14:08:26;;;;;;;;;5.33;5.33;;;;;;;;5067317;28;45414;-83
2021/08/14 14:10:52;;;;;;;;;10.25;7.50;;;;;;;;5067121;28;45434;-82
2021/08/14 14:13:17;;;;;;;;;5.00;5.00;;;;;;;;5047485;28;45648;-81
2021/08/14 14:15:42;;;;;;;;;10.67;6.67;;;;;;;;5056416;28;46677;-83
2021/08/14 14:18:07;;;;;;;;;10.67;6.67;;;;;;;;5057120;28;45308;-83
2021/08/14 14:20:35;;;;;;;;;8.25;6.75;;;;;;;;5057861;28;45375;-84
2021/08/14 14:23:00;;;;;;;;;6.75;6.75;;;;;;;;5062047;27;45712;-84
2021/08/14 14:25:25;;;;;;;;;5.00;4.00;;;;;;;;5059366;28;47473;-83
2021/08/14 14:27:50;;;;;;;;;5.75;5.50;;;;;;;;5055813;28;45533;-83
2021/08/14 14:30:16;;;;;;;;;6.33;6.33;;;;;;;;5056485;27;45392;-83
2021/08/14 14:32:41;;;;;;;;;6.50;6.25;;;;;;;;5038933;28;45978;-82
2021/08/14 14:35:08;;;;;;;;;7.75;6.25;;;;;;;;5057709;28;46386;-83
2021/08/14 14:37:33;;;;;;;;;6.75;6.00;;;;;;;;5058510;28;45962;-83
2021/08/14 14:39:58;;;;;;;;;6.00;3.00;;;;;;;;5039742;28;45515;-82